Time;durP1;ratioP1;P1;durP2;ratioP2;P2;SDS_P1;SDS_P2;PMS_P1;PMS_P2;Temp;Humidity;BMP_temperature;BMP_pressure;BME280_temperature;BME280_humidity;BME280_pressure;Samples;Min_cycle;Max_cycle;Signal;HPM_P1;HPM_P2
2023/01/24 00:00:02;;;;;;;13.63;10.70;;;-3.40;99.90;;;;;;5049296;28;20979;-47
2023/01/24 00:02:28;;;;;;;14.30;11.47;;;-3.60;99.90;;;;;;5063312;28;20808;-48
2023/01/24 00:04:55;;;;;;;17.00;11.33;;;-3.80;99.90;;;;;;5067235;28;20447;-46
2023/01/24 00:07:22;;;;;;;14.93;11.67;;;-3.80;99.90;;;;;;5068852;28;20564;-46
2023/01/24 00:09:50;;;;;;;12.87;11.13;;;-3.70;99.90;;;;;;5070261;28;20865;-46
2023/01/24 00:12:17;;;;;;;14.03;10.70;;;-3.50;99.90;;;;;;5053057;28;20533;-49
2023/01/24 00:14:44;;;;;;;14.77;11.03;;;-3.40;99.90;;;;;;5068236;28;20515;-46
2023/01/24 00:17:11;;;;;;;11.73;10.50;;;-3.40;99.90;;;;;;5068914;28;20496;-48
2023/01/24 00:19:38;;;;;;;14.23;11.63;;;-3.20;99.90;;;;;;5051173;28;20910;-47
2023/01/24 00:22:06;;;;;;;11.13;9.10;;;-3.00;99.90;;;;;;5062306;28;20469;-47
2023/01/24 00:24:34;;;;;;;10.50;9.07;;;-3.00;99.90;;;;;;5065904;28;20764;-47
2023/01/24 00:27:03;;;;;;;13.07;10.17;;;-3.00;99.90;;;;;;5067735;28;20456;-46
2023/01/24 00:29:30;;;;;;;12.00;9.47;;;-2.90;99.90;;;;;;5059788;28;20472;-50
2023/01/24 00:31:57;;;;;;;13.17;8.80;;;-3.10;99.90;;;;;;5058373;28;20470;-47
2023/01/24 00:34:23;;;;;;;12.90;10.37;;;-3.10;99.90;;;;;;5058427;28;20481;-47
2023/01/24 00:36:50;;;;;;;14.80;11.47;;;-3.20;99.90;;;;;;5049497;28;20569;-48
2023/01/24 00:39:17;;;;;;;18.30;12.30;;;-3.20;99.90;;;;;;5068899;28;20567;-47
2023/01/24 00:41:44;;;;;;;15.43;11.23;;;-3.10;99.90;;;;;;5069464;28;20552;-46
2023/01/24 00:44:13;;;;;;;18.07;11.60;;;-3.20;99.90;;;;;;5052199;28;20477;-45
2023/01/24 00:46:40;;;;;;;15.70;12.47;;;-3.00;99.90;;;;;;5056114;28;20467;-46
2023/01/24 00:49:07;;;;;;;13.10;11.80;;;-3.30;99.90;;;;;;5058049;28;20449;-47
2023/01/24 00:51:34;;;;;;;12.47;11.07;;;-3.70;99.90;;;;;;5064964;28;20479;-47
2023/01/24 00:54:01;;;;;;;14.50;13.00;;;-3.80;99.90;;;;;;5066384;28;20777;-46
2023/01/24 00:56:28;;;;;;;18.27;11.30;;;-3.80;99.90;;;;;;5052553;28;20530;-47
2023/01/24 00:58:55;;;;;;;15.77;12.57;;;-3.70;99.90;;;;;;5069083;28;20486;-48
2023/01/24 01:01:23;;;;;;;15.50;12.20;;;-3.20;99.90;;;;;;5065420;28;20965;-47
2023/01/24 01:03:50;;;;;;;16.80;11.97;;;-3.00;99.90;;;;;;5072176;28;20474;-47
2023/01/24 01:06:17;;;;;;;18.23;13.20;;;-2.90;99.90;;;;;;5070485;28;20450;-47
2023/01/24 01:08:44;;;;;;;18.97;12.47;;;-2.80;99.90;;;;;;5072242;28;20893;-47
2023/01/24 01:11:11;;;;;;;15.53;11.23;;;-3.00;99.90;;;;;;5072104;28;20531;-48
2023/01/24 01:13:38;;;;;;;17.77;12.27;;;-2.80;99.90;;;;;;5071354;28;20532;-46
2023/01/24 01:16:07;;;;;;;14.60;11.07;;;-2.70;99.90;;;;;;5067548;28;20532;-47
2023/01/24 01:18:36;;;;;;;14.37;10.43;;;-2.60;99.90;;;;;;5053996;28;20566;-48
2023/01/24 01:21:03;;;;;;;17.67;11.97;;;-2.60;99.90;;;;;;5061809;28;20485;-49
2023/01/24 01:23:30;;;;;;;18.20;12.37;;;-2.50;99.90;;;;;;5050056;28;20894;-47
2023/01/24 01:26:01;;;;;;;19.23;12.90;;;-2.60;99.90;;;;;;5050536;28;20943;-49
2023/01/24 01:28:28;;;;;;;18.70;11.67;;;-3.00;99.90;;;;;;5050351;28;20544;-48
2023/01/24 01:30:55;;;;;;;14.20;11.90;;;-3.40;99.90;;;;;;5053736;28;20477;-49
2023/01/24 01:33:22;;;;;;;13.97;10.20;;;-3.50;99.90;;;;;;5070008;28;20523;-47
2023/01/24 01:35:51;;;;;;;15.90;11.23;;;-3.50;99.90;;;;;;5070544;28;20530;-48
2023/01/24 01:38:19;;;;;;;18.30;12.03;;;-3.50;99.90;;;;;;5071489;28;20489;-47
2023/01/24 01:40:46;;;;;;;15.80;11.73;;;-3.50;99.90;;;;;;5070577;28;20527;-47
2023/01/24 01:43:15;;;;;;;19.30;11.70;;;-3.20;99.90;;;;;;5071499;28;20589;-48
2023/01/24 01:45:43;;;;;;;16.70;12.00;;;-3.30;99.90;;;;;;5071732;28;20868;-46
2023/01/24 01:48:19;;;;;;;15.50;11.87;;;-3.30;99.90;;;;;;5051484;28;20511;-47
2023/01/24 01:50:53;;;;;;;16.97;12.13;;;-3.40;99.90;;;;;;5051339;28;20533;-46
2023/01/24 01:53:22;;;;;;;19.00;11.90;;;-3.50;99.90;;;;;;5050379;28;20471;-46
2023/01/24 01:55:55;;;;;;;18.07;13.33;;;-3.50;99.90;;;;;;5064677;28;20531;-47
2023/01/24 01:58:22;;;;;;;14.60;11.40;;;-3.40;99.90;;;;;;5060313;28;20551;-46
2023/01/24 02:00:50;;;;;;;14.33;11.30;;;-3.20;99.90;;;;;;5067592;28;20516;-47
2023/01/24 02:03:41;;;;;;;20.17;12.60;;;-2.90;99.90;;;;;;5067505;28;20950;-47
2023/01/24 02:06:18;;;;;;;17.80;13.00;;;-2.70;99.90;;;;;;5069258;28;20858;-48
2023/01/24 02:08:45;;;;;;;15.20;11.20;;;-2.60;99.90;;;;;;5050928;28;20924;-46
2023/01/24 02:16:41;;;;;;;17.13;13.30;;;-2.50;99.90;;;;;;5054192;28;20456;-47
2023/01/24 02:19:18;;;;;;;18.63;11.23;;;-2.50;99.90;;;;;;5068191;28;20508;-47
2023/01/24 02:21:48;;;;;;;17.73;12.13;;;-2.60;99.90;;;;;;5058371;28;20468;-48
2023/01/24 02:24:22;;;;;;;23.20;11.70;;;-3.00;99.90;;;;;;5048951;28;21022;-47
2023/01/24 02:26:50;;;;;;;14.53;11.27;;;-3.20;99.90;;;;;;5053397;28;20536;-47
2023/01/24 02:29:17;;;;;;;16.60;11.73;;;-3.20;99.90;;;;;;5050859;28;20478;-46
2023/01/24 02:31:55;;;;;;;14.07;11.13;;;-3.10;99.90;;;;;;5066768;28;20524;-47
2023/01/24 02:34:22;;;;;;;17.60;12.27;;;-2.90;99.90;;;;;;5066839;28;20475;-47
2023/01/24 02:36:52;;;;;;;17.50;12.23;;;-2.70;99.90;;;;;;5059833;28;20872;-47
2023/01/24 02:39:24;;;;;;;18.57;11.90;;;-2.60;99.90;;;;;;5054536;28;20906;-46
2023/01/24 02:41:54;;;;;;;12.03;10.70;;;-2.60;99.90;;;;;;5069463;28;20477;-47
2023/01/24 02:44:29;;;;;;;16.20;10.60;;;-2.60;99.90;;;;;;5048516;28;20478;-47
2023/01/24 02:46:56;;;;;;;14.67;11.27;;;-2.50;99.90;;;;;;5057839;28;20919;-47
2023/01/24 02:49:23;;;;;;;17.73;12.37;;;-2.40;99.90;;;;;;5068970;28;20480;-47
2023/01/24 02:54:34;;;;;;;15.80;11.03;;;-2.40;99.90;;;;;;5053297;28;20530;-47
2023/01/24 02:59:46;;;;;;;14.07;11.53;;;-2.70;99.90;;;;;;5066336;28;20480;-47
2023/01/24 03:02:13;;;;;;;16.53;11.63;;;-2.70;99.90;;;;;;5059072;28;20473;-49
2023/01/24 03:04:40;;;;;;;12.80;10.80;;;-2.60;99.90;;;;;;5055266;28;21009;-47
2023/01/24 03:07:07;;;;;;;15.40;11.33;;;-2.50;99.90;;;;;;5066055;28;20560;-47
2023/01/24 03:09:38;;;;;;;15.17;12.00;;;-2.40;99.90;;;;;;5048980;28;20513;-49
2023/01/24 03:36:53;;;;;;;11.93;9.23;;;-2.70;99.90;;;;;;5069404;28;20819;-47
2023/01/24 03:42:05;;;;;;;15.00;10.10;;;-2.90;99.90;;;;;;5064180;28;20445;-47
2023/01/24 03:44:33;;;;;;;13.83;9.70;;;-2.70;99.90;;;;;;5051288;28;20544;-49
2023/01/24 03:47:00;;;;;;;11.53;10.00;;;-2.80;99.90;;;;;;5069742;28;20510;-48
2023/01/24 03:52:29;;;;;;;17.27;11.10;;;-2.80;99.90;;;;;;5049871;28;20450;-46
2023/01/24 03:54:56;;;;;;;14.87;10.63;;;-2.90;99.90;;;;;;5062850;28;20528;-47
2023/01/24 03:57:24;;;;;;;10.00;8.70;;;-3.00;99.90;;;;;;5069047;28;20559;-47
2023/01/24 03:59:52;;;;;;;11.93;7.97;;;-3.00;99.90;;;;;;5069195;28;20507;-50
2023/01/24 04:02:20;;;;;;;12.47;8.43;;;-2.90;99.90;;;;;;5069250;28;20476;-47
2023/01/24 04:07:31;;;;;;;11.03;7.83;;;-3.00;99.90;;;;;;5069213;28;20447;-46
2023/01/24 04:09:58;;;;;;;13.07;8.80;;;-2.90;99.90;;;;;;5068923;28;20530;-48
2023/01/24 04:12:25;;;;;;;12.83;8.23;;;-2.80;99.90;;;;;;5067904;28;20452;-47
2023/01/24 04:14:54;;;;;;;12.73;9.40;;;-3.00;99.90;;;;;;5057261;28;20533;-47
2023/01/24 04:17:21;;;;;;;15.40;9.63;;;-3.00;99.90;;;;;;5055578;28;20557;-47
2023/01/24 04:19:48;;;;;;;13.53;9.77;;;-2.80;99.90;;;;;;5062995;28;20563;-47
2023/01/24 04:22:16;;;;;;;13.30;9.50;;;-3.00;99.90;;;;;;5066070;28;20527;-44
2023/01/24 04:24:44;;;;;;;15.83;10.03;;;-2.90;99.90;;;;;;5057477;28;20480;-47
2023/01/24 04:27:11;;;;;;;14.77;10.57;;;-2.90;99.90;;;;;;5059379;28;20981;-49
2023/01/24 04:29:38;;;;;;;11.73;8.67;;;-3.00;99.90;;;;;;5073173;28;20440;-47
2023/01/24 04:32:06;;;;;;;13.90;9.27;;;-3.00;99.90;;;;;;5072788;28;20451;-47
2023/01/24 04:34:33;;;;;;;15.03;10.50;;;-3.10;99.90;;;;;;5072196;28;20534;-47
2023/01/24 04:37:00;;;;;;;11.40;9.00;;;-2.90;99.90;;;;;;5072206;28;20531;-46
2023/01/24 04:39:27;;;;;;;12.40;8.33;;;-2.80;99.90;;;;;;5072236;28;20440;-47
2023/01/24 04:41:54;;;;;;;13.23;10.00;;;-2.70;99.90;;;;;;5070205;28;20487;-48
2023/01/24 04:44:21;;;;;;;13.43;9.57;;;-3.00;99.90;;;;;;5070812;28;20532;-47
2023/01/24 04:46:48;;;;;;;10.73;8.80;;;-2.90;99.90;;;;;;5070466;28;20532;-49
2023/01/24 04:49:17;;;;;;;13.20;9.03;;;-2.80;99.90;;;;;;5065889;28;20476;-43
2023/01/24 04:51:44;;;;;;;12.10;9.67;;;-2.90;99.90;;;;;;5060837;28;20658;-47
2023/01/24 04:54:11;;;;;;;13.50;8.77;;;-2.90;99.90;;;;;;5069176;28;20867;-46
2023/01/24 04:56:38;;;;;;;13.73;8.53;;;-3.20;99.90;;;;;;5054037;28;20887;-46
2023/01/24 04:59:05;;;;;;;15.93;10.87;;;-3.50;99.90;;;;;;5055249;28;20547;-47
2023/01/24 05:01:32;;;;;;;11.17;7.33;;;-3.60;99.90;;;;;;5051592;28;20508;-47
2023/01/24 05:03:59;;;;;;;13.43;9.73;;;-3.70;99.90;;;;;;5054817;28;20871;-46
2023/01/24 05:06:29;;;;;;;8.90;8.00;;;-3.80;99.90;;;;;;5070929;28;21018;-46
2023/01/24 05:08:57;;;;;;;13.23;8.80;;;-3.90;99.90;;;;;;5059736;28;20487;-47
2023/01/24 05:11:24;;;;;;;17.87;10.23;;;-3.80;99.90;;;;;;5062090;28;20478;-47
2023/01/24 05:13:51;;;;;;;14.70;10.97;;;-3.90;99.90;;;;;;5050914;28;20486;-48
2023/01/24 05:16:18;;;;;;;17.77;12.33;;;-4.00;99.90;;;;;;5052073;28;21013;-47
2023/01/24 05:18:45;;;;;;;23.43;14.80;;;-3.90;99.90;;;;;;5087843;22;20570;-50
2023/01/24 05:21:14;;;;;;;23.58;12.75;;;-3.80;99.90;;;;;;5070335;28;20504;-50
2023/01/24 05:23:43;;;;;;;14.40;10.90;;;-3.80;99.90;;;;;;5071557;28;20232;-50
2023/01/24 05:26:10;;;;;;;15.30;9.73;;;-3.80;99.90;;;;;;5070644;28;21129;-49
2023/01/24 05:28:37;;;;;;;17.13;12.60;;;-3.80;99.90;;;;;;5057303;28;20486;-50
2023/01/24 05:31:07;;;;;;;15.43;11.47;;;-3.80;99.90;;;;;;5051071;28;21004;-51
2023/01/24 05:33:34;;;;;;;14.83;10.60;;;-3.60;99.90;;;;;;5049388;28;20762;-51
2023/01/24 05:36:01;;;;;;;16.97;11.57;;;-3.40;99.90;;;;;;5049206;28;20966;-53
2023/01/24 05:38:28;;;;;;;17.70;11.07;;;-3.20;99.90;;;;;;5051232;28;20489;-50
2023/01/24 05:41:00;;;;;;;16.63;11.63;;;-3.10;99.90;;;;;;5050565;28;20558;-52
2023/01/24 05:43:27;;;;;;;14.93;10.60;;;-3.00;99.90;;;;;;5048636;28;20453;-51
2023/01/24 05:45:59;;;;;;;15.30;9.03;;;-3.00;99.90;;;;;;5049344;28;20476;-51
2023/01/24 05:48:26;;;;;;;11.90;9.73;;;-3.00;99.90;;;;;;5048997;28;20843;-54
2023/01/24 05:50:57;;;;;;;13.57;9.80;;;-3.00;99.90;;;;;;5050563;28;20541;-50
2023/01/24 05:53:25;;;;;;;19.07;12.13;;;-3.00;99.90;;;;;;5048990;28;20548;-52
2023/01/24 05:55:57;;;;;;;25.17;12.47;;;-3.20;99.90;;;;;;5049774;28;21029;-52
2023/01/24 05:58:25;;;;;;;21.23;12.57;;;-3.10;99.90;;;;;;5032127;28;20987;-54
2023/01/24 06:00:52;;;;;;;23.83;13.30;;;-3.10;99.90;;;;;;5047466;28;20555;-50
2023/01/24 06:03:19;;;;;;;22.30;12.90;;;-3.10;99.90;;;;;;5040245;28;20482;-49
2023/01/24 06:05:47;;;;;;;17.13;10.27;;;-3.10;99.90;;;;;;5051144;28;20473;-50
2023/01/24 06:08:15;;;;;;;14.33;8.73;;;-3.20;99.90;;;;;;5041818;28;21060;-52
2023/01/24 06:10:42;;;;;;;10.57;8.40;;;-3.20;99.90;;;;;;5040333;28;20532;-51
2023/01/24 06:13:11;;;;;;;11.50;9.03;;;-3.30;99.90;;;;;;5037509;28;20469;-52
2023/01/24 06:15:38;;;;;;;11.93;8.10;;;-3.20;99.90;;;;;;5050384;28;20525;-50
2023/01/24 06:18:07;;;;;;;13.03;7.70;;;-3.40;99.90;;;;;;5041765;28;20511;-53
2023/01/24 06:20:34;;;;;;;12.70;9.03;;;-3.70;99.90;;;;;;5039360;28;21116;-50
2023/01/24 06:23:05;;;;;;;10.60;8.80;;;-3.80;99.90;;;;;;5040424;28;20540;-49
2023/01/24 06:25:33;;;;;;;10.20;9.07;;;-4.00;99.90;;;;;;5040950;28;20519;-51
2023/01/24 06:28:00;;;;;;;10.53;8.77;;;-4.10;99.90;;;;;;5046782;28;20501;-53
2023/01/24 06:30:29;;;;;;;15.53;10.23;;;-4.30;99.90;;;;;;5050450;28;21013;-50
2023/01/24 06:33:07;;;;;;;14.60;10.00;;;-4.60;99.90;;;;;;5049913;28;20975;-53
2023/01/24 06:35:43;;;;;;;11.63;8.63;;;-4.60;99.90;;;;;;5050487;28;20486;-52
2023/01/24 06:38:20;;;;;;;11.87;8.70;;;-4.70;99.90;;;;;;5050373;28;20548;-49
2023/01/24 06:40:47;;;;;;;11.17;7.60;;;-4.30;99.90;;;;;;5051077;28;20502;-53
2023/01/24 06:43:14;;;;;;;12.50;8.63;;;-4.40;99.90;;;;;;5048261;28;20537;-53
2023/01/24 06:45:43;;;;;;;14.02;8.75;;;-4.40;99.90;;;;;;5040510;28;20234;-51
2023/01/24 06:48:10;;;;;;;9.33;7.87;;;-4.20;99.90;;;;;;5049486;28;20303;-50
2023/01/24 06:50:37;;;;;;;16.70;8.23;;;-4.10;99.90;;;;;;5049961;28;20982;-50
2023/01/24 06:53:04;;;;;;;11.37;7.73;;;-4.10;99.90;;;;;;5049549;28;20527;-54
2023/01/24 06:55:31;;;;;;;9.97;7.70;;;-4.00;99.90;;;;;;5050181;28;20448;-52
2023/01/24 06:57:59;;;;;;;9.37;7.17;;;-4.00;99.90;;;;;;5050228;28;20527;-53
2023/01/24 07:00:26;;;;;;;11.63;6.63;;;-3.90;99.90;;;;;;5049373;28;20513;-53
2023/01/24 07:03:02;;;;;;;15.80;7.80;;;-3.70;99.90;;;;;;5049664;28;20477;-50
2023/01/24 07:05:29;;;;;;;8.10;6.40;;;-3.90;99.90;;;;;;5049294;28;20453;-51
2023/01/24 07:07:56;;;;;;;8.17;6.27;;;-4.30;99.90;;;;;;5048883;28;20521;-50
2023/01/24 07:10:23;;;;;;;8.83;7.80;;;-4.30;99.90;;;;;;5048463;28;20475;-50
2023/01/24 07:12:50;;;;;;;10.80;7.70;;;-4.20;99.90;;;;;;5049132;28;20523;-51
2023/01/24 07:15:17;;;;;;;10.17;7.57;;;-4.60;99.90;;;;;;5048249;28;20532;-54
2023/01/24 07:17:45;;;;;;;9.63;8.03;;;-4.50;99.90;;;;;;5048655;28;20993;-50
2023/01/24 07:20:14;;;;;;;12.77;9.00;;;-4.80;99.90;;;;;;5049347;28;20529;-52
2023/01/24 07:22:42;;;;;;;10.97;9.63;;;-5.00;99.90;;;;;;5049078;28;20469;-52
2023/01/24 07:25:14;;;;;;;13.50;10.80;;;-4.80;99.90;;;;;;5048797;28;20442;-50
2023/01/24 07:27:42;;;;;;;18.90;12.03;;;-4.60;99.90;;;;;;5049696;28;20468;-49
2023/01/24 07:30:10;;;;;;;17.57;11.50;;;-4.60;99.90;;;;;;5050184;28;20547;-50
2023/01/24 07:32:37;;;;;;;16.60;12.20;;;-4.70;99.90;;;;;;5049310;28;20484;-50
2023/01/24 07:35:04;;;;;;;14.17;10.67;;;-4.70;99.90;;;;;;5049468;28;20546;-49
2023/01/24 07:37:33;;;;;;;14.82;10.82;;;-4.60;99.90;;;;;;5048086;28;20902;-49
2023/01/24 07:39:59;;;;;;;16.50;10.90;;;-4.70;99.90;;;;;;5049684;28;20740;-52
2023/01/24 07:42:26;;;;;;;17.23;10.80;;;-4.60;99.90;;;;;;5049726;28;20935;-52
2023/01/24 07:44:56;;;;;;;16.20;10.40;;;-4.50;99.90;;;;;;5048556;28;20518;-52
2023/01/24 07:47:24;;;;;;;14.33;9.17;;;-4.60;99.90;;;;;;5049342;28;20492;-51
2023/01/24 07:49:50;;;;;;;13.03;10.17;;;-4.50;99.90;;;;;;5049936;28;20525;-49
2023/01/24 07:52:17;;;;;;;11.87;9.80;;;-4.30;99.90;;;;;;5049063;28;20537;-49
2023/01/24 07:54:46;;;;;;;17.33;10.33;;;-4.10;99.90;;;;;;5049006;28;21022;-49
2023/01/24 07:57:12;;;;;;;12.40;9.73;;;-3.90;99.90;;;;;;5049794;28;20526;-52
2023/01/24 07:59:39;;;;;;;11.47;9.10;;;-3.80;99.90;;;;;;5049105;28;20530;-53
2023/01/24 08:02:06;;;;;;;16.73;9.10;;;-4.20;99.90;;;;;;5049649;28;20516;-50
2023/01/24 08:04:33;;;;;;;12.33;8.07;;;-4.00;99.90;;;;;;5048355;28;21351;-50
2023/01/24 08:07:19;;;;;;;12.10;10.07;;;-3.90;99.90;;;;;;5049440;28;20533;-50
2023/01/24 08:09:49;;;;;;;11.47;8.60;;;-3.80;99.90;;;;;;5049568;28;20483;-50
2023/01/24 08:12:16;;;;;;;11.25;8.45;;;-4.10;99.90;;;;;;5049145;28;21108;-49
2023/01/24 08:14:43;;;;;;;14.73;8.47;;;-4.00;99.90;;;;;;5048564;28;20236;-50
2023/01/24 08:17:10;;;;;;;12.77;9.50;;;-3.90;99.90;;;;;;5049180;28;20862;-50
2023/01/24 08:19:37;;;;;;;11.30;9.07;;;-3.70;99.90;;;;;;5048859;28;20870;-50
2023/01/24 08:22:05;;;;;;;13.30;9.40;;;-3.60;99.90;;;;;;5048376;28;20561;-50
2023/01/24 08:24:32;;;;;;;11.10;9.87;;;-3.70;99.90;;;;;;5047615;28;20441;-51
2023/01/24 08:27:01;;;;;;;20.37;14.87;;;-3.70;99.90;;;;;;5038322;28;20498;-50
2023/01/24 08:29:28;;;;;;;21.00;13.83;;;-3.80;99.90;;;;;;5029065;28;20485;-50
2023/01/24 08:31:56;;;;;;;18.50;12.27;;;-3.80;99.90;;;;;;5029871;28;20529;-50
2023/01/24 08:34:22;;;;;;;17.70;13.00;;;-3.80;99.90;;;;;;5027938;28;20534;-50
2023/01/24 08:36:49;;;;;;;18.10;13.90;;;-3.70;99.90;;;;;;5028552;28;20474;-50
2023/01/24 08:39:16;;;;;;;22.83;15.30;;;-3.80;99.90;;;;;;5028805;28;20544;-50
2023/01/24 08:41:45;;;;;;;21.07;17.47;;;-3.90;99.90;;;;;;5029113;28;20509;-50
2023/01/24 08:44:15;;;;;;;20.70;16.37;;;-3.90;99.90;;;;;;5028459;28;20532;-50
2023/01/24 08:46:42;;;;;;;19.70;15.97;;;-4.20;99.90;;;;;;5029445;28;20545;-50
2023/01/24 08:49:11;;;;;;;16.93;14.63;;;-4.30;99.90;;;;;;5029082;28;20497;-49
2023/01/24 08:51:37;;;;;;;16.07;13.93;;;-4.20;99.90;;;;;;5028314;28;20470;-50
2023/01/24 08:54:05;;;;;;;15.80;11.40;;;-4.30;99.90;;;;;;5028216;28;20493;-50
2023/01/24 08:56:32;;;;;;;17.73;14.07;;;-4.20;99.90;;;;;;5028835;28;20462;-50
2023/01/24 08:58:59;;;;;;;16.87;11.83;;;-4.10;99.90;;;;;;5029062;28;20501;-51
2023/01/24 09:01:28;;;;;;;14.50;10.83;;;-4.20;99.90;;;;;;5028864;28;20543;-50
2023/01/24 09:03:56;;;;;;;14.50;10.20;;;-4.10;99.90;;;;;;5027795;28;20447;-50
2023/01/24 09:06:24;;;;;;;14.13;10.03;;;-4.20;99.90;;;;;;5027328;28;20449;-54
2023/01/24 09:08:53;;;;;;;12.73;10.00;;;-4.20;99.90;;;;;;5027896;28;20466;-50
2023/01/24 09:11:21;;;;;;;11.90;8.17;;;-4.50;99.90;;;;;;5029550;28;20819;-50
2023/01/24 09:13:48;;;;;;;11.60;8.95;;;-4.70;99.90;;;;;;5030764;28;20471;-50
2023/01/24 09:16:14;;;;;;;11.00;8.07;;;-4.90;99.90;;;;;;5030797;28;20291;-51
2023/01/24 09:18:43;;;;;;;15.27;9.30;;;-4.90;99.90;;;;;;5031052;28;20511;-51
2023/01/24 09:21:10;;;;;;;12.53;9.47;;;-4.70;99.90;;;;;;5029997;28;20520;-51
2023/01/24 09:23:37;;;;;;;11.37;9.47;;;-4.40;99.90;;;;;;5030428;28;21015;-51
2023/01/24 09:26:04;;;;;;;17.77;10.87;;;-4.40;99.90;;;;;;5032375;28;20468;-50
2023/01/24 09:28:31;;;;;;;10.10;8.20;;;-4.40;99.90;;;;;;5031704;28;20499;-53
2023/01/24 09:30:58;;;;;;;13.40;10.00;;;-4.20;99.90;;;;;;5032371;28;20871;-49
2023/01/24 09:33:25;;;;;;;13.17;9.47;;;-3.90;99.90;;;;;;5031215;28;21017;-49
2023/01/24 09:35:54;;;;;;;13.33;8.60;;;-3.70;99.90;;;;;;5031432;28;20447;-49
2023/01/24 09:38:22;;;;;;;14.07;8.80;;;-3.60;99.90;;;;;;5031826;28;20551;-52
2023/01/24 09:40:57;;;;;;;12.10;7.90;;;-3.50;99.90;;;;;;5032053;28;20507;-50
2023/01/24 09:43:39;;;;;;;17.00;10.80;;;-3.70;99.90;;;;;;5031349;28;20531;-51
2023/01/24 09:46:17;;;;;;;14.80;11.03;;;-3.50;99.90;;;;;;5032143;28;20477;-50
2023/01/24 09:48:44;;;;;;;17.40;13.73;;;-3.40;99.90;;;;;;5031762;28;20560;-50
2023/01/24 09:51:17;;;;;;;21.77;16.37;;;-3.30;99.90;;;;;;5032026;28;20534;-51
2023/01/24 09:53:47;;;;;;;17.47;14.90;;;-3.20;99.90;;;;;;5031208;28;20472;-53
2023/01/24 09:56:26;;;;;;;18.47;12.57;;;-3.30;99.90;;;;;;5031351;28;20474;-51
2023/01/24 09:59:14;;;;;;;15.57;11.17;;;-3.20;99.90;;;;;;5031664;28;20542;-52
2023/01/24 10:01:41;;;;;;;20.97;13.60;;;-3.20;99.90;;;;;;5032163;28;20489;-50
2023/01/24 10:04:20;;;;;;;17.47;12.70;;;-3.00;99.90;;;;;;5031239;28;20903;-50
2023/01/24 10:07:03;;;;;;;17.20;12.70;;;-3.10;99.90;;;;;;5031456;28;20532;-52
2023/01/24 10:09:40;;;;;;;20.27;13.10;;;-3.20;99.90;;;;;;5031104;28;20539;-50
2023/01/24 10:12:19;;;;;;;20.77;13.87;;;-3.40;99.90;;;;;;5031701;28;20527;-50
2023/01/24 10:14:56;;;;;;;15.83;11.60;;;-3.40;99.90;;;;;;5030873;28;20528;-53
2023/01/24 10:17:51;;;;;;;16.90;11.53;;;-3.30;99.90;;;;;;5030769;28;21031;-51
2023/01/24 10:20:32;;;;;;;19.07;13.30;;;-3.00;99.90;;;;;;5031211;28;20477;-50
2023/01/24 10:23:09;;;;;;;14.73;11.00;;;-2.90;99.90;;;;;;5027896;28;20528;-49
2023/01/24 10:25:50;;;;;;;16.87;10.60;;;-2.70;99.90;;;;;;5031151;28;20530;-50
2023/01/24 10:28:23;;;;;;;20.93;12.47;;;-2.70;99.90;;;;;;5031283;28;20563;-52
2023/01/24 10:30:57;;;;;;;18.73;10.73;;;-2.50;99.90;;;;;;5031500;28;20493;-50
2023/01/24 10:33:28;;;;;;;17.20;11.30;;;-2.60;99.90;;;;;;5029632;28;20475;-50
2023/01/24 10:35:59;;;;;;;15.03;11.30;;;-2.60;99.90;;;;;;5030877;28;20480;-52
2023/01/24 10:38:28;;;;;;;19.23;13.40;;;-2.60;99.90;;;;;;5030441;28;20883;-50
2023/01/24 10:40:57;;;;;;;14.93;11.70;;;-3.00;99.90;;;;;;5039108;28;20441;-50
2023/01/24 10:43:26;;;;;;;18.13;13.30;;;-3.10;99.90;;;;;;5049875;28;20517;-51
2023/01/24 10:46:04;;;;;;;19.37;13.23;;;-3.20;99.90;;;;;;5043701;28;20492;-50
2023/01/24 10:48:40;;;;;;;23.20;12.50;;;-3.00;99.90;;;;;;5030367;28;20501;-53
2023/01/24 10:51:16;;;;;;;14.43;10.13;;;-3.00;99.90;;;;;;5030724;28;20845;-50
2023/01/24 10:53:45;;;;;;;18.63;10.63;;;-2.90;99.90;;;;;;5029837;28;20478;-51
2023/01/24 10:56:14;;;;;;;13.10;10.30;;;-2.80;99.90;;;;;;5030130;28;20470;-50
2023/01/24 10:58:43;;;;;;;14.53;10.20;;;-2.80;99.90;;;;;;5030206;28;20879;-52
2023/01/24 11:01:18;;;;;;;17.20;10.23;;;-2.70;99.90;;;;;;5049853;28;20477;-50
2023/01/24 11:03:46;;;;;;;16.37;11.60;;;-2.40;99.90;;;;;;5049517;28;20862;-50
2023/01/24 11:06:32;;;;;;;18.03;10.67;;;-2.50;99.90;;;;;;5050132;28;20487;-52
2023/01/24 11:09:09;;;;;;;15.47;10.90;;;-2.30;99.90;;;;;;5049305;28;20550;-52
2023/01/24 11:11:42;;;;;;;16.73;13.83;;;-2.20;99.90;;;;;;5050209;28;20443;-49
2023/01/24 11:14:14;;;;;;;19.70;13.77;;;-2.00;99.90;;;;;;5043127;28;20437;-52
2023/01/24 11:16:44;;;;;;;19.37;12.60;;;-1.90;99.90;;;;;;5038405;28;20532;-50
2023/01/24 11:19:25;;;;;;;14.60;11.30;;;-1.90;99.90;;;;;;5098353;22;20500;-50
2023/01/24 11:21:54;;;;;;;18.70;13.23;;;-2.10;99.90;;;;;;5056537;28;20512;-52
2023/01/24 11:24:23;;;;;;;16.03;12.77;;;-1.90;99.90;;;;;;5058329;28;20472;-50
2023/01/24 11:26:57;;;;;;;19.57;13.87;;;-1.80;99.90;;;;;;5059907;28;20516;-50
2023/01/24 11:29:25;;;;;;;17.10;13.67;;;-1.80;99.90;;;;;;5042741;28;20513;-51
2023/01/24 11:31:54;;;;;;;16.70;13.27;;;-1.70;99.90;;;;;;5037147;28;20513;-50
2023/01/24 11:34:45;;;;;;;20.47;13.50;;;-1.50;99.90;;;;;;5035997;28;20465;-50
2023/01/24 11:37:36;;;;;;;16.70;11.70;;;-1.50;99.90;;;;;;5037075;28;20440;-49
2023/01/24 11:40:19;;;;;;;14.50;10.53;;;-1.40;99.90;;;;;;5032093;28;20445;-51
2023/01/24 11:42:57;;;;;;;11.70;10.47;;;-1.20;99.90;;;;;;5037838;28;20475;-50
2023/01/24 11:45:36;;;;;;;11.40;9.80;;;-1.30;99.90;;;;;;5038952;28;20533;-50
2023/01/24 11:48:13;;;;;;;15.23;9.70;;;-1.50;99.90;;;;;;5035332;28;20546;-49
2023/01/24 11:50:50;;;;;;;11.57;10.00;;;-1.40;99.90;;;;;;5037944;28;20534;-50
2023/01/24 11:53:41;;;;;;;15.60;11.20;;;-1.50;99.90;;;;;;5047642;28;20526;-52
2023/01/24 11:56:20;;;;;;;12.13;9.87;;;-1.30;99.90;;;;;;5046733;28;20528;-53
2023/01/24 11:59:32;;;;;;;13.20;10.17;;;-1.10;99.90;;;;;;5030102;28;20810;-50
2023/01/24 12:02:14;;;;;;;11.27;9.40;;;-1.20;99.90;;;;;;4948294;29;20624;-50
2023/01/24 12:04:59;;;;;;;10.73;8.47;;;-0.90;99.90;;;;;;5017272;28;21031;-49
2023/01/24 12:07:32;;;;;;;12.60;8.80;;;-0.90;99.90;;;;;;5029584;28;20816;-49
2023/01/24 12:10:08;;;;;;;11.10;10.00;;;-0.80;99.90;;;;;;5028747;28;20546;-52
2023/01/24 12:12:42;;;;;;;14.40;10.63;;;-0.60;99.90;;;;;;5026941;28;21006;-52
2023/01/24 12:15:21;;;;;;;14.83;10.53;;;-0.60;99.90;;;;;;5026960;28;20529;-51
2023/01/24 12:18:26;;;;;;;12.90;10.07;;;-0.50;99.90;;;;;;5029324;28;20453;-50
2023/01/24 12:21:04;;;;;;;14.70;9.70;;;-0.40;99.90;;;;;;5027993;28;20517;-53
2023/01/24 12:23:38;;;;;;;13.43;9.63;;;-0.30;99.90;;;;;;5027133;28;20572;-52
2023/01/24 12:26:13;;;;;;;13.47;10.10;;;-0.30;99.90;;;;;;5029882;28;20639;-50
2023/01/24 12:28:49;;;;;;;13.83;11.03;;;-0.30;99.90;;;;;;5030393;28;20490;-53
2023/01/24 12:31:23;;;;;;;13.17;9.30;;;-0.20;99.90;;;;;;5031085;28;20957;-50
2023/01/24 12:33:56;;;;;;;13.13;10.10;;;-0.20;99.90;;;;;;5029688;28;20525;-51
2023/01/24 12:36:33;;;;;;;10.80;9.00;;;-0.70;99.90;;;;;;5026693;28;20526;-50
2023/01/24 12:39:05;;;;;;;10.40;8.10;;;-0.70;99.90;;;;;;5029042;28;20566;-51
2023/01/24 12:41:34;;;;;;;14.23;9.40;;;-0.70;99.90;;;;;;5027684;28;20856;-50
2023/01/24 12:44:10;;;;;;;11.60;7.30;;;-0.50;99.90;;;;;;5027906;28;20570;-53
2023/01/24 12:46:42;;;;;;;10.47;8.37;;;-0.60;99.90;;;;;;5031159;28;20544;-52
2023/01/24 12:49:23;;;;;;;12.37;8.00;;;-0.50;99.90;;;;;;5032260;28;20519;-53
2023/01/24 12:51:59;;;;;;;9.13;6.90;;;-0.30;99.90;;;;;;5033566;28;20814;-50
2023/01/24 12:54:35;;;;;;;12.60;8.70;;;-0.50;99.90;;;;;;5032161;28;20828;-52
2023/01/24 12:57:13;;;;;;;11.17;8.13;;;-0.40;99.90;;;;;;5033074;28;20541;-53
2023/01/24 12:59:41;;;;;;;11.47;8.20;;;-0.30;99.90;;;;;;5033374;28;20537;-49
2023/01/24 13:02:35;;;;;;;10.97;8.47;;;-0.20;99.90;;;;;;5033965;28;21100;-51
2023/01/24 13:05:24;;;;;;;9.93;7.97;;;-0.50;99.90;;;;;;5032689;28;20446;-50
2023/01/24 13:08:02;;;;;;;11.03;8.00;;;-0.50;99.90;;;;;;5033312;28;20832;-50
2023/01/24 13:10:53;;;;;;;11.63;8.10;;;-0.50;99.90;;;;;;5033302;28;20533;-50
2023/01/24 13:13:25;;;;;;;10.60;8.30;;;-0.40;99.90;;;;;;5032628;28;20530;-51
2023/01/24 13:16:07;;;;;;;9.60;8.03;;;-0.60;99.90;;;;;;5033813;28;20534;-50
2023/01/24 13:18:47;;;;;;;13.63;9.33;;;-0.60;99.90;;;;;;5033740;28;20566;-51
2023/01/24 13:21:21;;;;;;;10.10;8.60;;;-0.50;99.90;;;;;;5032458;28;20997;-51
2023/01/24 13:24:07;;;;;;;12.30;8.90;;;-0.30;99.90;;;;;;5033517;28;20572;-51
2023/01/24 13:26:47;;;;;;;17.80;11.03;;;-0.30;99.90;;;;;;5034090;28;20513;-50
2023/01/24 13:29:37;;;;;;;13.67;10.20;;;-0.10;99.90;;;;;;5033640;28;20458;-55
2023/01/24 13:32:09;;;;;;;14.00;8.93;;;0.00;99.90;;;;;;5034008;28;20525;-50